sensor_id;sensor_type;location;lat;lon;timestamp;P1;durP1;ratioP1;P2;durP2;ratioP2
36189;SDS011;22232;50.914;13.858;2023-02-01T00:01:10;10.27;;;4.45;;
36189;SDS011;22232;50.914;13.858;2023-02-01T00:03:38;13.50;;;3.60;;
36189;SDS011;22232;50.914;13.858;2023-02-01T00:06:05;12.77;;;4.88;;
36189;SDS011;22232;50.914;13.858;2023-02-01T00:08:33;10.60;;;4.13;;
36189;SDS011;22232;50.914;13.858;2023-02-01T00:11:03;13.60;;;4.15;;
36189;SDS011;22232;50.914;13.858;2023-02-01T00:13:33;10.27;;;4.38;;
36189;SDS011;22232;50.914;13.858;2023-02-01T00:16:05;12.20;;;4.57;;
36189;SDS011;22232;50.914;13.858;2023-02-01T00:18:35;16.30;;;4.20;;
36189;SDS011;22232;50.914;13.858;2023-02-01T00:21:03;15.07;;;3.85;;
36189;SDS011;22232;50.914;13.858;2023-02-01T00:23:32;17.73;;;4.35;;
36189;SDS011;22232;50.914;13.858;2023-02-01T00:26:01;12.18;;;4.38;;
36189;SDS011;22232;50.914;13.858;2023-02-01T00:28:30;11.48;;;4.13;;
36189;SDS011;22232;50.914;13.858;2023-02-01T00:31:02;9.43;;;4.38;;
36189;SDS011;22232;50.914;13.858;2023-02-01T00:33:31;8.60;;;4.23;;
36189;SDS011;22232;50.914;13.858;2023-02-01T00:36:01;11.10;;;3.92;;
36189;SDS011;22232;50.914;13.858;2023-02-01T00:38:35;13.02;;;4.00;;
36189;SDS011;22232;50.914;13.858;2023-02-01T00:41:06;12.15;;;4.60;;
36189;SDS011;22232;50.914;13.858;2023-02-01T00:43:45;12.52;;;4.55;;
36189;SDS011;22232;50.914;13.858;2023-02-01T00:46:14;13.05;;;4.05;;
36189;SDS011;22232;50.914;13.858;2023-02-01T00:48:43;11.05;;;4.32;;
36189;SDS011;22232;50.914;13.858;2023-02-01T00:51:12;12.93;;;3.83;;
36189;SDS011;22232;50.914;13.858;2023-02-01T00:53:42;12.68;;;3.83;;
36189;SDS011;22232;50.914;13.858;2023-02-01T00:56:09;9.82;;;3.60;;
36189;SDS011;22232;50.914;13.858;2023-02-01T00:58:37;17.52;;;4.38;;
36189;SDS011;22232;50.914;13.858;2023-02-01T01:01:20;9.98;;;4.00;;
36189;SDS011;22232;50.914;13.858;2023-02-01T01:03:53;13.93;;;3.97;;
36189;SDS011;22232;50.914;13.858;2023-02-01T01:06:31;17.15;;;4.43;;
36189;SDS011;22232;50.914;13.858;2023-02-01T01:09:03;9.68;;;3.83;;
36189;SDS011;22232;50.914;13.858;2023-02-01T01:11:33;12.82;;;3.85;;
36189;SDS011;22232;50.914;13.858;2023-02-01T01:14:05;14.05;;;4.18;;
36189;SDS011;22232;50.914;13.858;2023-02-01T01:16:35;10.50;;;4.20;;
36189;SDS011;22232;50.914;13.858;2023-02-01T01:19:03;13.35;;;3.90;;
36189;SDS011;22232;50.914;13.858;2023-02-01T01:21:31;13.70;;;3.67;;
36189;SDS011;22232;50.914;13.858;2023-02-01T01:23:58;10.95;;;3.90;;
36189;SDS011;22232;50.914;13.858;2023-02-01T01:26:27;7.65;;;3.30;;
36189;SDS011;22232;50.914;13.858;2023-02-01T01:28:56;14.18;;;4.00;;
36189;SDS011;22232;50.914;13.858;2023-02-01T01:31:26;14.77;;;3.33;;
36189;SDS011;22232;50.914;13.858;2023-02-01T01:33:55;14.95;;;3.17;;
36189;SDS011;22232;50.914;13.858;2023-02-01T01:36:24;11.77;;;3.60;;
36189;SDS011;22232;50.914;13.858;2023-02-01T01:38:53;13.15;;;3.63;;
36189;SDS011;22232;50.914;13.858;2023-02-01T01:41:23;15.77;;;3.50;;
36189;SDS011;22232;50.914;13.858;2023-02-01T01:44:00;19.05;;;3.45;;
36189;SDS011;22232;50.914;13.858;2023-02-01T01:46:31;8.75;;;2.90;;
36189;SDS011;22232;50.914;13.858;2023-02-01T01:49:14;12.35;;;3.40;;
36189;SDS011;22232;50.914;13.858;2023-02-01T01:51:56;19.77;;;3.30;;
36189;SDS011;22232;50.914;13.858;2023-02-01T01:54:29;12.48;;;3.20;;
36189;SDS011;22232;50.914;13.858;2023-02-01T01:57:06;8.40;;;3.00;;
36189;SDS011;22232;50.914;13.858;2023-02-01T01:59:38;22.10;;;4.22;;
36189;SDS011;22232;50.914;13.858;2023-02-01T02:02:09;11.32;;;2.92;;
36189;SDS011;22232;50.914;13.858;2023-02-01T02:04:37;10.02;;;3.17;;
36189;SDS011;22232;50.914;13.858;2023-02-01T02:07:08;11.88;;;3.10;;
36189;SDS011;22232;50.914;13.858;2023-02-01T02:09:41;12.68;;;3.60;;
36189;SDS011;22232;50.914;13.858;2023-02-01T02:12:25;13.93;;;3.30;;
36189;SDS011;22232;50.914;13.858;2023-02-01T02:14:55;16.63;;;2.95;;
36189;SDS011;22232;50.914;13.858;2023-02-01T02:25:28;12.20;;;3.17;;
36189;SDS011;22232;50.914;13.858;2023-02-01T02:31:34;19.08;;;3.10;;
36189;SDS011;22232;50.914;13.858;2023-02-01T02:42:27;12.15;;;2.80;;
36189;SDS011;22232;50.914;13.858;2023-02-01T02:48:46;13.88;;;3.75;;
36189;SDS011;22232;50.914;13.858;2023-02-01T02:51:20;14.07;;;3.67;;
36189;SDS011;22232;50.914;13.858;2023-02-01T02:54:15;14.77;;;3.47;;
36189;SDS011;22232;50.914;13.858;2023-02-01T02:57:06;9.32;;;3.78;;
36189;SDS011;22232;50.914;13.858;2023-02-01T02:59:57;13.95;;;3.47;;
36189;SDS011;22232;50.914;13.858;2023-02-01T03:02:47;16.95;;;4.18;;
36189;SDS011;22232;50.914;13.858;2023-02-01T03:05:35;10.90;;;2.50;;
36189;SDS011;22232;50.914;13.858;2023-02-01T03:19:02;9.43;;;2.75;;
36189;SDS011;22232;50.914;13.858;2023-02-01T03:27:18;16.05;;;3.42;;
36189;SDS011;22232;50.914;13.858;2023-02-01T03:32:39;16.10;;;3.50;;
36189;SDS011;22232;50.914;13.858;2023-02-01T03:36:14;11.60;;;2.70;;
36189;SDS011;22232;50.914;13.858;2023-02-01T03:41:43;14.52;;;3.50;;
36189;SDS011;22232;50.914;13.858;2023-02-01T03:47:17;11.00;;;3.50;;
36189;SDS011;22232;50.914;13.858;2023-02-01T03:49:55;9.15;;;2.70;;
36189;SDS011;22232;50.914;13.858;2023-02-01T03:52:30;7.85;;;2.47;;
36189;SDS011;22232;50.914;13.858;2023-02-01T03:55:05;12.38;;;2.95;;
36189;SDS011;22232;50.914;13.858;2023-02-01T03:57:35;15.48;;;2.80;;
36189;SDS011;22232;50.914;13.858;2023-02-01T04:00:18;13.32;;;2.97;;
36189;SDS011;22232;50.914;13.858;2023-02-01T04:02:51;19.30;;;3.22;;
36189;SDS011;22232;50.914;13.858;2023-02-01T04:05:20;11.18;;;2.90;;
36189;SDS011;22232;50.914;13.858;2023-02-01T04:07:59;12.45;;;3.42;;
36189;SDS011;22232;50.914;13.858;2023-02-01T04:10:27;13.57;;;2.97;;
36189;SDS011;22232;50.914;13.858;2023-02-01T04:12:54;16.20;;;3.30;;
36189;SDS011;22232;50.914;13.858;2023-02-01T04:15:22;10.55;;;2.50;;
36189;SDS011;22232;50.914;13.858;2023-02-01T04:17:49;22.52;;;3.83;;
36189;SDS011;22232;50.914;13.858;2023-02-01T04:20:17;16.90;;;2.70;;
36189;SDS011;22232;50.914;13.858;2023-02-01T04:22:44;12.02;;;2.95;;
36189;SDS011;22232;50.914;13.858;2023-02-01T04:25:12;10.73;;;3.00;;
36189;SDS011;22232;50.914;13.858;2023-02-01T04:27:39;10.15;;;2.65;;
36189;SDS011;22232;50.914;13.858;2023-02-01T04:30:07;15.25;;;3.63;;
36189;SDS011;22232;50.914;13.858;2023-02-01T04:32:38;21.25;;;3.25;;
36189;SDS011;22232;50.914;13.858;2023-02-01T04:35:06;10.65;;;3.08;;
36189;SDS011;22232;50.914;13.858;2023-02-01T04:37:34;10.45;;;2.75;;
36189;SDS011;22232;50.914;13.858;2023-02-01T04:40:02;14.02;;;3.78;;
36189;SDS011;22232;50.914;13.858;2023-02-01T04:42:30;11.90;;;2.83;;
36189;SDS011;22232;50.914;13.858;2023-02-01T04:44:58;10.80;;;3.10;;
36189;SDS011;22232;50.914;13.858;2023-02-01T04:47:25;13.63;;;3.17;;
36189;SDS011;22232;50.914;13.858;2023-02-01T04:49:53;9.23;;;2.60;;
36189;SDS011;22232;50.914;13.858;2023-02-01T04:52:20;15.93;;;3.30;;
36189;SDS011;22232;50.914;13.858;2023-02-01T04:54:48;11.73;;;3.20;;
36189;SDS011;22232;50.914;13.858;2023-02-01T04:57:16;12.98;;;3.25;;
36189;SDS011;22232;50.914;13.858;2023-02-01T04:59:43;12.27;;;3.22;;
36189;SDS011;22232;50.914;13.858;2023-02-01T05:02:11;12.73;;;3.78;;
36189;SDS011;22232;50.914;13.858;2023-02-01T05:04:38;11.02;;;3.70;;
36189;SDS011;22232;50.914;13.858;2023-02-01T05:07:06;13.60;;;3.50;;
36189;SDS011;22232;50.914;13.858;2023-02-01T05:09:33;17.73;;;4.50;;
36189;SDS011;22232;50.914;13.858;2023-02-01T05:12:01;16.35;;;3.13;;
36189;SDS011;22232;50.914;13.858;2023-02-01T05:14:47;20.10;;;3.75;;
36189;SDS011;22232;50.914;13.858;2023-02-01T05:17:15;18.40;;;4.80;;
36189;SDS011;22232;50.914;13.858;2023-02-01T05:19:43;16.02;;;3.83;;
36189;SDS011;22232;50.914;13.858;2023-02-01T05:22:10;15.70;;;3.78;;
36189;SDS011;22232;50.914;13.858;2023-02-01T05:24:38;16.45;;;3.38;;
36189;SDS011;22232;50.914;13.858;2023-02-01T05:27:05;18.17;;;3.50;;
36189;SDS011;22232;50.914;13.858;2023-02-01T05:29:33;14.88;;;3.10;;
36189;SDS011;22232;50.914;13.858;2023-02-01T05:32:00;21.08;;;4.13;;
36189;SDS011;22232;50.914;13.858;2023-02-01T05:34:46;15.32;;;3.60;;
36189;SDS011;22232;50.914;13.858;2023-02-01T05:37:14;20.02;;;3.17;;
36189;SDS011;22232;50.914;13.858;2023-02-01T05:39:41;20.55;;;3.00;;
36189;SDS011;22232;50.914;13.858;2023-02-01T05:42:09;15.18;;;4.13;;
36189;SDS011;22232;50.914;13.858;2023-02-01T05:44:37;14.80;;;3.22;;
36189;SDS011;22232;50.914;13.858;2023-02-01T05:47:05;10.10;;;3.13;;
36189;SDS011;22232;50.914;13.858;2023-02-01T05:49:33;15.00;;;3.20;;
36189;SDS011;22232;50.914;13.858;2023-02-01T05:52:00;15.55;;;3.63;;
36189;SDS011;22232;50.914;13.858;2023-02-01T05:54:28;16.88;;;3.10;;
36189;SDS011;22232;50.914;13.858;2023-02-01T05:56:55;27.52;;;4.25;;
36189;SDS011;22232;50.914;13.858;2023-02-01T05:59:23;19.10;;;4.65;;
36189;SDS011;22232;50.914;13.858;2023-02-01T06:01:50;17.05;;;3.45;;
36189;SDS011;22232;50.914;13.858;2023-02-01T06:04:18;21.33;;;3.72;;
36189;SDS011;22232;50.914;13.858;2023-02-01T06:06:45;10.73;;;2.80;;
36189;SDS011;22232;50.914;13.858;2023-02-01T06:09:13;26.45;;;4.97;;
36189;SDS011;22232;50.914;13.858;2023-02-01T06:11:40;20.60;;;4.85;;
36189;SDS011;22232;50.914;13.858;2023-02-01T06:14:08;15.57;;;3.95;;
36189;SDS011;22232;50.914;13.858;2023-02-01T06:16:35;19.15;;;3.40;;
36189;SDS011;22232;50.914;13.858;2023-02-01T06:19:03;13.57;;;3.55;;
36189;SDS011;22232;50.914;13.858;2023-02-01T06:21:31;13.63;;;3.40;;
36189;SDS011;22232;50.914;13.858;2023-02-01T06:24:00;13.50;;;4.03;;
36189;SDS011;22232;50.914;13.858;2023-02-01T06:26:27;12.50;;;3.97;;
36189;SDS011;22232;50.914;13.858;2023-02-01T06:28:56;18.35;;;3.28;;
36189;SDS011;22232;50.914;13.858;2023-02-01T06:31:23;13.63;;;3.38;;
36189;SDS011;22232;50.914;13.858;2023-02-01T06:33:52;13.73;;;3.03;;
36189;SDS011;22232;50.914;13.858;2023-02-01T06:36:20;12.90;;;3.38;;
36189;SDS011;22232;50.914;13.858;2023-02-01T06:38:48;14.95;;;3.38;;
36189;SDS011;22232;50.914;13.858;2023-02-01T06:41:15;14.82;;;4.10;;
36189;SDS011;22232;50.914;13.858;2023-02-01T06:43:43;10.57;;;3.10;;
36189;SDS011;22232;50.914;13.858;2023-02-01T06:46:12;14.43;;;3.42;;
36189;SDS011;22232;50.914;13.858;2023-02-01T06:48:42;16.77;;;3.35;;
36189;SDS011;22232;50.914;13.858;2023-02-01T06:51:18;14.05;;;3.20;;
36189;SDS011;22232;50.914;13.858;2023-02-01T06:53:51;12.48;;;3.75;;
36189;SDS011;22232;50.914;13.858;2023-02-01T06:56:19;16.00;;;3.30;;
36189;SDS011;22232;50.914;13.858;2023-02-01T06:58:47;15.27;;;3.58;;
36189;SDS011;22232;50.914;13.858;2023-02-01T07:01:16;10.85;;;3.20;;
36189;SDS011;22232;50.914;13.858;2023-02-01T07:03:46;17.50;;;3.42;;
36189;SDS011;22232;50.914;13.858;2023-02-01T07:06:14;16.65;;;3.78;;
36189;SDS011;22232;50.914;13.858;2023-02-01T07:08:42;16.42;;;3.55;;
36189;SDS011;22232;50.914;13.858;2023-02-01T07:11:11;13.43;;;3.80;;
36189;SDS011;22232;50.914;13.858;2023-02-01T07:13:40;17.42;;;3.28;;
36189;SDS011;22232;50.914;13.858;2023-02-01T07:16:12;15.75;;;4.25;;
36189;SDS011;22232;50.914;13.858;2023-02-01T07:18:42;12.02;;;3.63;;
36189;SDS011;22232;50.914;13.858;2023-02-01T07:21:10;11.65;;;4.10;;
36189;SDS011;22232;50.914;13.858;2023-02-01T07:23:37;15.88;;;3.72;;
36189;SDS011;22232;50.914;13.858;2023-02-01T07:26:06;14.40;;;3.70;;
36189;SDS011;22232;50.914;13.858;2023-02-01T07:28:35;14.23;;;4.40;;
36189;SDS011;22232;50.914;13.858;2023-02-01T07:31:05;16.42;;;3.38;;
36189;SDS011;22232;50.914;13.858;2023-02-01T07:33:34;10.60;;;3.60;;
36189;SDS011;22232;50.914;13.858;2023-02-01T07:36:03;14.93;;;4.28;;
36189;SDS011;22232;50.914;13.858;2023-02-01T07:38:33;16.23;;;4.65;;
36189;SDS011;22232;50.914;13.858;2023-02-01T07:41:01;16.90;;;4.22;;
36189;SDS011;22232;50.914;13.858;2023-02-01T07:43:30;16.33;;;4.68;;
36189;SDS011;22232;50.914;13.858;2023-02-01T07:45:58;16.25;;;4.10;;
36189;SDS011;22232;50.914;13.858;2023-02-01T07:48:26;15.60;;;4.78;;
36189;SDS011;22232;50.914;13.858;2023-02-01T07:50:58;16.20;;;4.40;;
36189;SDS011;22232;50.914;13.858;2023-02-01T07:53:31;21.92;;;5.03;;
36189;SDS011;22232;50.914;13.858;2023-02-01T07:56:00;17.23;;;4.35;;
36189;SDS011;22232;50.914;13.858;2023-02-01T07:58:28;15.48;;;4.28;;
36189;SDS011;22232;50.914;13.858;2023-02-01T08:00:56;10.25;;;4.30;;
36189;SDS011;22232;50.914;13.858;2023-02-01T08:03:42;14.52;;;4.20;;
36189;SDS011;22232;50.914;13.858;2023-02-01T08:06:09;14.85;;;3.97;;
36189;SDS011;22232;50.914;13.858;2023-02-01T08:08:37;19.67;;;5.20;;
36189;SDS011;22232;50.914;13.858;2023-02-01T08:11:05;18.83;;;4.95;;
36189;SDS011;22232;50.914;13.858;2023-02-01T08:13:34;16.25;;;4.50;;
36189;SDS011;22232;50.914;13.858;2023-02-01T08:16:03;17.77;;;4.85;;
36189;SDS011;22232;50.914;13.858;2023-02-01T08:18:33;17.63;;;4.40;;
36189;SDS011;22232;50.914;13.858;2023-02-01T08:21:02;14.30;;;4.40;;
36189;SDS011;22232;50.914;13.858;2023-02-01T08:23:50;19.73;;;4.50;;
36189;SDS011;22232;50.914;13.858;2023-02-01T08:26:25;17.02;;;4.07;;
36189;SDS011;22232;50.914;13.858;2023-02-01T08:28:56;15.43;;;4.38;;
36189;SDS011;22232;50.914;13.858;2023-02-01T08:33:56;22.85;;;4.85;;
36189;SDS011;22232;50.914;13.858;2023-02-01T08:36:27;15.98;;;4.28;;
36189;SDS011;22232;50.914;13.858;2023-02-01T08:38:56;17.63;;;5.25;;
36189;SDS011;22232;50.914;13.858;2023-02-01T08:41:25;11.10;;;4.18;;
36189;SDS011;22232;50.914;13.858;2023-02-01T08:43:55;14.70;;;5.22;;
36189;SDS011;22232;50.914;13.858;2023-02-01T08:46:23;28.30;;;5.30;;
36189;SDS011;22232;50.914;13.858;2023-02-01T08:48:51;19.27;;;4.10;;
36189;SDS011;22232;50.914;13.858;2023-02-01T08:51:20;17.98;;;4.53;;
36189;SDS011;22232;50.914;13.858;2023-02-01T08:53:49;14.70;;;4.20;;
36189;SDS011;22232;50.914;13.858;2023-02-01T08:56:18;15.93;;;3.97;;
36189;SDS011;22232;50.914;13.858;2023-02-01T08:58:46;13.80;;;4.32;;
36189;SDS011;22232;50.914;13.858;2023-02-01T09:01:14;16.67;;;4.05;;
36189;SDS011;22232;50.914;13.858;2023-02-01T09:03:44;17.77;;;4.22;;
36189;SDS011;22232;50.914;13.858;2023-02-01T09:06:13;18.90;;;4.45;;
36189;SDS011;22232;50.914;13.858;2023-02-01T09:08:42;17.30;;;4.70;;
36189;SDS011;22232;50.914;13.858;2023-02-01T09:11:12;22.23;;;3.60;;
36189;SDS011;22232;50.914;13.858;2023-02-01T09:13:41;16.13;;;4.22;;
36189;SDS011;22232;50.914;13.858;2023-02-01T09:16:09;18.85;;;3.95;;
36189;SDS011;22232;50.914;13.858;2023-02-01T09:18:37;10.82;;;4.03;;
36189;SDS011;22232;50.914;13.858;2023-02-01T09:21:22;16.17;;;4.00;;
36189;SDS011;22232;50.914;13.858;2023-02-01T09:23:50;17.80;;;4.07;;
36189;SDS011;22232;50.914;13.858;2023-02-01T09:26:18;13.77;;;4.15;;
36189;SDS011;22232;50.914;13.858;2023-02-01T09:28:57;18.60;;;4.78;;
36189;SDS011;22232;50.914;13.858;2023-02-01T09:31:24;12.52;;;3.83;;
36189;SDS011;22232;50.914;13.858;2023-02-01T09:33:52;16.95;;;4.50;;
36189;SDS011;22232;50.914;13.858;2023-02-01T09:36:19;21.17;;;4.53;;
36189;SDS011;22232;50.914;13.858;2023-02-01T09:38:47;15.48;;;3.85;;
36189;SDS011;22232;50.914;13.858;2023-02-01T09:47:08;15.68;;;4.70;;
36189;SDS011;22232;50.914;13.858;2023-02-01T09:49:41;24.02;;;4.63;;
36189;SDS011;22232;50.914;13.858;2023-02-01T09:52:24;10.90;;;3.53;;
36189;SDS011;22232;50.914;13.858;2023-02-01T09:55:03;15.38;;;4.45;;
36189;SDS011;22232;50.914;13.858;2023-02-01T09:57:40;14.45;;;3.40;;
36189;SDS011;22232;50.914;13.858;2023-02-01T10:00:30;9.32;;;3.22;;
36189;SDS011;22232;50.914;13.858;2023-02-01T10:03:02;9.73;;;3.70;;
36189;SDS011;22232;50.914;13.858;2023-02-01T10:08:23;14.35;;;3.63;;
36189;SDS011;22232;50.914;13.858;2023-02-01T10:11:04;11.90;;;4.05;;
36189;SDS011;22232;50.914;13.858;2023-02-01T10:16:30;15.68;;;4.00;;
36189;SDS011;22232;50.914;13.858;2023-02-01T10:19:21;7.93;;;3.00;;
36189;SDS011;22232;50.914;13.858;2023-02-01T10:21:58;11.15;;;2.97;;
36189;SDS011;22232;50.914;13.858;2023-02-01T10:24:37;8.38;;;2.92;;
36189;SDS011;22232;50.914;13.858;2023-02-01T10:29:49;9.63;;;2.90;;
36189;SDS011;22232;50.914;13.858;2023-02-01T10:32:28;5.88;;;2.90;;
36189;SDS011;22232;50.914;13.858;2023-02-01T10:35:04;8.48;;;2.65;;
36189;SDS011;22232;50.914;13.858;2023-02-01T10:37:41;5.80;;;3.42;;
36189;SDS011;22232;50.914;13.858;2023-02-01T10:42:50;6.88;;;2.78;;
36189;SDS011;22232;50.914;13.858;2023-02-01T10:45:21;8.90;;;3.20;;
36189;SDS011;22232;50.914;13.858;2023-02-01T10:47:52;5.43;;;3.22;;
36189;SDS011;22232;50.914;13.858;2023-02-01T10:58:18;12.45;;;4.00;;
36189;SDS011;22232;50.914;13.858;2023-02-01T11:05:02;19.75;;;4.75;;
36189;SDS011;22232;50.914;13.858;2023-02-01T11:07:32;12.75;;;4.28;;
36189;SDS011;22232;50.914;13.858;2023-02-01T11:10:00;13.43;;;4.38;;
36189;SDS011;22232;50.914;13.858;2023-02-01T11:12:33;16.25;;;4.45;;
36189;SDS011;22232;50.914;13.858;2023-02-01T11:15:18;15.27;;;4.13;;
36189;SDS011;22232;50.914;13.858;2023-02-01T11:17:49;17.13;;;4.55;;
36189;SDS011;22232;50.914;13.858;2023-02-01T11:20:34;16.33;;;3.78;;
36189;SDS011;22232;50.914;13.858;2023-02-01T11:23:17;15.98;;;3.92;;
36189;SDS011;22232;50.914;13.858;2023-02-01T11:26:00;20.38;;;4.80;;
36189;SDS011;22232;50.914;13.858;2023-02-01T11:28:35;12.60;;;3.80;;
36189;SDS011;22232;50.914;13.858;2023-02-01T11:31:07;13.90;;;4.10;;
36189;SDS011;22232;50.914;13.858;2023-02-01T11:33:43;15.23;;;4.32;;
36189;SDS011;22232;50.914;13.858;2023-02-01T11:36:33;15.35;;;4.00;;
36189;SDS011;22232;50.914;13.858;2023-02-01T11:39:53;18.02;;;4.28;;
36189;SDS011;22232;50.914;13.858;2023-02-01T11:44:36;16.00;;;4.15;;
36189;SDS011;22232;50.914;13.858;2023-02-01T11:49:47;17.02;;;3.90;;
36189;SDS011;22232;50.914;13.858;2023-02-01T11:53:06;14.23;;;3.63;;
36189;SDS011;22232;50.914;13.858;2023-02-01T11:57:43;16.80;;;3.55;;
36189;SDS011;22232;50.914;13.858;2023-02-01T12:15:35;11.35;;;3.35;;
36189;SDS011;22232;50.914;13.858;2023-02-01T12:21:04;13.02;;;3.20;;
36189;SDS011;22232;50.914;13.858;2023-02-01T12:31:49;13.82;;;3.15;;
36189;SDS011;22232;50.914;13.858;2023-02-01T12:40:18;12.43;;;2.78;;
36189;SDS011;22232;50.914;13.858;2023-02-01T12:42:55;11.98;;;2.95;;
36189;SDS011;22232;50.914;13.858;2023-02-01T12:45:31;9.18;;;3.08;;
36189;SDS011;22232;50.914;13.858;2023-02-01T12:50:53;7.80;;;2.85;;
36189;SDS011;22232;50.914;13.858;2023-02-01T12:53:27;15.63;;;3.35;;
36189;SDS011;22232;50.914;13.858;2023-02-01T12:56:06;9.75;;;2.83;;
36189;SDS011;22232;50.914;13.858;2023-02-01T13:01:15;9.43;;;2.80;;
36189;SDS011;22232;50.914;13.858;2023-02-01T13:06:42;11.23;;;3.10;;
36189;SDS011;22232;50.914;13.858;2023-02-01T13:09:31;10.15;;;2.75;;
36189;SDS011;22232;50.914;13.858;2023-02-01T13:12:04;12.70;;;3.65;;
36189;SDS011;22232;50.914;13.858;2023-02-01T13:17:18;11.85;;;2.97;;
36189;SDS011;22232;50.914;13.858;2023-02-01T13:19:52;12.38;;;3.28;;
36189;SDS011;22232;50.914;13.858;2023-02-01T13:22:31;10.95;;;2.83;;
36189;SDS011;22232;50.914;13.858;2023-02-01T13:25:12;16.60;;;4.80;;
36189;SDS011;22232;50.914;13.858;2023-02-01T13:27:43;12.63;;;2.90;;
36189;SDS011;22232;50.914;13.858;2023-02-01T13:30:19;19.10;;;4.47;;
36189;SDS011;22232;50.914;13.858;2023-02-01T13:35:45;9.25;;;2.90;;
36189;SDS011;22232;50.914;13.858;2023-02-01T13:44:03;8.73;;;2.45;;
36189;SDS011;22232;50.914;13.858;2023-02-01T13:46:44;7.07;;;2.22;;
36189;SDS011;22232;50.914;13.858;2023-02-01T13:49:21;10.63;;;2.85;;
36189;SDS011;22232;50.914;13.858;2023-02-01T13:51:53;11.85;;;2.80;;
36189;SDS011;22232;50.914;13.858;2023-02-01T13:57:03;11.10;;;2.60;;
36189;SDS011;22232;50.914;13.858;2023-02-01T14:05:12;8.82;;;2.65;;
36189;SDS011;22232;50.914;13.858;2023-02-01T14:13:34;8.90;;;2.53;;
36189;SDS011;22232;50.914;13.858;2023-02-01T14:31:52;9.32;;;2.83;;
36189;SDS011;22232;50.914;13.858;2023-02-01T14:36:58;10.88;;;3.00;;
36189;SDS011;22232;50.914;13.858;2023-02-01T14:39:33;9.52;;;2.47;;
36189;SDS011;22232;50.914;13.858;2023-02-01T14:42:04;13.18;;;2.85;;
36189;SDS011;22232;50.914;13.858;2023-02-01T14:44:53;10.40;;;2.30;;
36189;SDS011;22232;50.914;13.858;2023-02-01T14:47:39;8.20;;;2.50;;
36189;SDS011;22232;50.914;13.858;2023-02-01T14:50:11;10.70;;;3.10;;
36189;SDS011;22232;50.914;13.858;2023-02-01T14:58:05;11.25;;;3.17;;
36189;SDS011;22232;50.914;13.858;2023-02-01T15:00:47;13.02;;;2.78;;
36189;SDS011;22232;50.914;13.858;2023-02-01T15:05:57;14.65;;;2.88;;
36189;SDS011;22232;50.914;13.858;2023-02-01T15:08:33;10.70;;;2.55;;
36189;SDS011;22232;50.914;13.858;2023-02-01T15:11:05;9.27;;;3.10;;
36189;SDS011;22232;50.914;13.858;2023-02-01T15:13:38;7.90;;;2.70;;
36189;SDS011;22232;50.914;13.858;2023-02-01T15:16:13;10.55;;;2.60;;
36189;SDS011;22232;50.914;13.858;2023-02-01T15:18:42;9.35;;;2.85;;
36189;SDS011;22232;50.914;13.858;2023-02-01T15:21:19;8.93;;;3.00;;
36189;SDS011;22232;50.914;13.858;2023-02-01T15:24:12;10.32;;;2.70;;
36189;SDS011;22232;50.914;13.858;2023-02-01T15:26:41;11.00;;;3.60;;
36189;SDS011;22232;50.914;13.858;2023-02-01T15:29:13;10.57;;;2.95;;
36189;SDS011;22232;50.914;13.858;2023-02-01T15:31:48;11.43;;;2.72;;
36189;SDS011;22232;50.914;13.858;2023-02-01T15:34:19;10.32;;;2.90;;
36189;SDS011;22232;50.914;13.858;2023-02-01T15:36:47;11.45;;;3.58;;
36189;SDS011;22232;50.914;13.858;2023-02-01T15:39:29;13.05;;;3.42;;
36189;SDS011;22232;50.914;13.858;2023-02-01T15:42:00;12.90;;;3.13;;
36189;SDS011;22232;50.914;13.858;2023-02-01T15:47:14;19.15;;;3.85;;
36189;SDS011;22232;50.914;13.858;2023-02-01T15:49:45;12.60;;;3.75;;
36189;SDS011;22232;50.914;13.858;2023-02-01T15:54:51;11.93;;;3.40;;
36189;SDS011;22232;50.914;13.858;2023-02-01T15:57:22;15.77;;;4.35;;
36189;SDS011;22232;50.914;13.858;2023-02-01T15:59:58;16.13;;;3.88;;
36189;SDS011;22232;50.914;13.858;2023-02-01T16:02:41;13.38;;;3.70;;
36189;SDS011;22232;50.914;13.858;2023-02-01T16:05:37;11.10;;;3.53;;
36189;SDS011;22232;50.914;13.858;2023-02-01T16:08:20;13.02;;;3.60;;
36189;SDS011;22232;50.914;13.858;2023-02-01T16:10:58;11.70;;;4.00;;
36189;SDS011;22232;50.914;13.858;2023-02-01T16:13:29;15.75;;;4.45;;
36189;SDS011;22232;50.914;13.858;2023-02-01T16:15:56;12.95;;;3.72;;
36189;SDS011;22232;50.914;13.858;2023-02-01T16:18:24;12.80;;;4.10;;
36189;SDS011;22232;50.914;13.858;2023-02-01T16:20:51;10.30;;;4.30;;
36189;SDS011;22232;50.914;13.858;2023-02-01T16:23:19;14.27;;;5.13;;
36189;SDS011;22232;50.914;13.858;2023-02-01T16:25:47;12.65;;;4.65;;
36189;SDS011;22232;50.914;13.858;2023-02-01T16:28:15;10.43;;;4.32;;
36189;SDS011;22232;50.914;13.858;2023-02-01T16:30:42;12.60;;;4.53;;
36189;SDS011;22232;50.914;13.858;2023-02-01T16:33:11;14.98;;;5.28;;
36189;SDS011;22232;50.914;13.858;2023-02-01T16:35:44;15.13;;;4.95;;
36189;SDS011;22232;50.914;13.858;2023-02-01T16:38:12;14.50;;;4.82;;
36189;SDS011;22232;50.914;13.858;2023-02-01T16:40:42;17.15;;;4.40;;
36189;SDS011;22232;50.914;13.858;2023-02-01T16:45:51;17.27;;;5.40;;
36189;SDS011;22232;50.914;13.858;2023-02-01T16:48:29;17.35;;;4.82;;
36189;SDS011;22232;50.914;13.858;2023-02-01T16:51:04;13.05;;;4.57;;
36189;SDS011;22232;50.914;13.858;2023-02-01T16:53:36;14.77;;;5.00;;
36189;SDS011;22232;50.914;13.858;2023-02-01T16:56:21;16.42;;;4.43;;
36189;SDS011;22232;50.914;13.858;2023-02-01T16:58:50;13.88;;;4.45;;
36189;SDS011;22232;50.914;13.858;2023-02-01T17:01:18;12.02;;;4.50;;
36189;SDS011;22232;50.914;13.858;2023-02-01T17:03:46;18.67;;;5.15;;
36189;SDS011;22232;50.914;13.858;2023-02-01T17:06:15;17.30;;;4.88;;
36189;SDS011;22232;50.914;13.858;2023-02-01T17:08:46;17.20;;;4.70;;
36189;SDS011;22232;50.914;13.858;2023-02-01T17:11:17;11.18;;;4.13;;
36189;SDS011;22232;50.914;13.858;2023-02-01T17:13:44;17.48;;;4.50;;
36189;SDS011;22232;50.914;13.858;2023-02-01T17:16:22;18.95;;;6.45;;
36189;SDS011;22232;50.914;13.858;2023-02-01T17:18:56;21.90;;;4.55;;
36189;SDS011;22232;50.914;13.858;2023-02-01T17:21:30;15.45;;;5.72;;
36189;SDS011;22232;50.914;13.858;2023-02-01T17:24:05;10.98;;;4.85;;
36189;SDS011;22232;50.914;13.858;2023-02-01T17:26:33;5.28;;;3.50;;
36189;SDS011;22232;50.914;13.858;2023-02-01T17:29:02;5.60;;;3.17;;
36189;SDS011;22232;50.914;13.858;2023-02-01T17:31:29;5.22;;;2.30;;
36189;SDS011;22232;50.914;13.858;2023-02-01T17:34:00;2.53;;;1.88;;
36189;SDS011;22232;50.914;13.858;2023-02-01T17:36:27;2.05;;;1.40;;
36189;SDS011;22232;50.914;13.858;2023-02-01T17:38:55;3.25;;;1.40;;
36189;SDS011;22232;50.914;13.858;2023-02-01T17:41:32;2.88;;;1.60;;
36189;SDS011;22232;50.914;13.858;2023-02-01T17:44:00;2.42;;;1.10;;
36189;SDS011;22232;50.914;13.858;2023-02-01T17:46:30;2.13;;;1.00;;
36189;SDS011;22232;50.914;13.858;2023-02-01T17:48:57;4.00;;;1.90;;
36189;SDS011;22232;50.914;13.858;2023-02-01T17:51:26;2.60;;;1.88;;
36189;SDS011;22232;50.914;13.858;2023-02-01T17:53:54;2.40;;;1.67;;
36189;SDS011;22232;50.914;13.858;2023-02-01T17:56:22;3.53;;;1.80;;
36189;SDS011;22232;50.914;13.858;2023-02-01T17:58:51;2.80;;;1.70;;
36189;SDS011;22232;50.914;13.858;2023-02-01T18:01:19;3.60;;;1.50;;